Bloemendaal, Nederland

8:38 AM CET op 09 december 2016 (GMT +0100)
Haarlem | | Change Station

Hoogte 0 ft 52.38 °N, 4.63 °E | Updated 58 seconds ago

Geheel bewolkt
Geheel bewolkt
50.4 °F
Voelt als 50.4 °F
N
1.9
Wind Variabel Wind van NW
Gusts 5.0 mijl/u

Vandaag
Hoog -- | Laag -- °F
--% Kans op neerslag
Gisteren
Hoog -- | Laag -- °F
Precip. -- inches
Druk 30.30 inches
Zicht 1.2 mijlen
Wolken Gering 200 ft
Merendeels bewolkt 300 ft
Geheel bewolkt 400 ft
Dauwpunt 49 °F
Vochtigheid 96%
Neerslag 0.00 inches
Dikte sneeuw Niet beschikbaar.
8:39 AM 4:28 PM
Wassende maan, 71% visible
METAR EHAM 090725Z 21010KT 1900 -DZ BR FEW002 BKN003 OVC004 10/09 Q1026 TEMPO 0800 SCT001 BKN002
Druk 30.30 inches
Zicht 1.2 mijlen
Wolken Gering 200 ft
Merendeels bewolkt 300 ft
Geheel bewolkt 400 ft
Dauwpunt 49 °F
Vochtigheid 96%
Neerslag 0.00 inches
Dikte sneeuw Niet beschikbaar.
8:39 AM 4:28 PM
Wassende maan, 71% visible
METAR EHAM 090725Z 21010KT 1900 -DZ BR FEW002 BKN003 OVC004 10/09 Q1026 TEMPO 0800 SCT001 BKN002

10-Day Weather Forecast

×

Almanac

Astronomie

Dec. 09, 2016 Opkomst Ondergang
Werkelijke tijd
Burgerlijke schemering
Nautische schemering
Astronomische schemering
Maan
Golflengte van het zichtbare licht
Daglengte
Tomorrow will be .
, % of the Moon is Illuminated

Extremen vandaag

Country Highs Country Lows

Community

WunderPhotos

Upload Photos

1,956,374 foto’s ge-upload!

WunderBlog® & News

Nearby

Luchtkwaliteit

  Luchtkwaliteit LK-index Verontreinigende stof
Not available.

Dikte sneeuw

Station Depth Geometrische hoogte

Aardbevingen

Stad Distance Mag. Time & Date
Minimum magnitude displayed is 2.5.

Watertemperatuur langs de kust

Plaats Temperatuur

Stations

Nabije weerstations

Locatie station Temp. Gevoelstemperatuur Dauwpunt Vochtigheid Wind Precip. Hoogte Geactualiseerd Type